createdAt,value
2023-04-16T00:01:52.415Z,15.70
2023-04-16T00:04:18.979Z,16.48
2023-04-16T00:06:45.777Z,14.20
2023-04-16T00:09:12.224Z,15.50
2023-04-16T00:11:38.605Z,13.63
2023-04-16T00:14:05.713Z,16.75
2023-04-16T00:16:46.211Z,13.40
2023-04-16T00:19:14.380Z,12.57
2023-04-16T00:21:40.777Z,12.32
2023-04-16T00:24:11.432Z,12.15
2023-04-16T00:26:37.942Z,14.95
2023-04-16T00:29:05.545Z,13.95
2023-04-16T00:31:33.773Z,15.80
2023-04-16T00:34:00.428Z,14.23
2023-04-16T00:36:27.780Z,14.65
2023-04-16T00:38:58.322Z,14.27
2023-04-16T00:41:24.769Z,16.23
2023-04-16T00:43:51.349Z,17.95
2023-04-16T00:46:19.408Z,17.50
2023-04-16T00:48:46.428Z,17.35
2023-04-16T00:51:12.948Z,16.23
2023-04-16T00:53:39.433Z,17.15
2023-04-16T00:56:08.215Z,17.73
2023-04-16T00:58:35.366Z,18.08
2023-04-16T01:01:02.322Z,16.10
2023-04-16T01:03:39.394Z,15.30
2023-04-16T01:06:07.409Z,17.50
2023-04-16T01:08:34.450Z,15.73
2023-04-16T01:11:01.024Z,15.98
2023-04-16T01:13:27.447Z,15.23
2023-04-16T01:15:53.941Z,14.02
2023-04-16T01:18:24.256Z,15.30
2023-04-16T01:20:51.073Z,15.65
2023-04-16T01:23:18.015Z,13.68
2023-04-16T01:25:45.482Z,16.50
2023-04-16T01:28:11.948Z,15.55
2023-04-16T01:30:38.546Z,17.35
2023-04-16T01:33:05.423Z,16.05
2023-04-16T01:35:32.090Z,15.18
2023-04-16T01:37:58.920Z,14.13
2023-04-16T01:40:25.757Z,15.80
2023-04-16T01:42:52.229Z,16.85
2023-04-16T01:45:18.714Z,17.45
2023-04-16T01:47:45.269Z,15.38
2023-04-16T01:50:11.826Z,19.80
2023-04-16T01:52:38.252Z,21.10
2023-04-16T01:55:05.048Z,17.30
2023-04-16T01:57:31.603Z,17.58
2023-04-16T01:59:58.112Z,17.73
2023-04-16T02:02:25.465Z,15.60
2023-04-16T02:04:51.867Z,18.15
2023-04-16T02:07:18.321Z,16.25
2023-04-16T02:09:45.001Z,16.95
2023-04-16T02:12:11.467Z,17.52
2023-04-16T02:14:38.299Z,16.80
2023-04-16T02:17:04.716Z,18.10
2023-04-16T02:19:31.180Z,18.45
2023-04-16T02:21:57.686Z,17.40
2023-04-16T02:24:24.435Z,19.38
2023-04-16T02:26:51.198Z,15.70
2023-04-16T02:29:17.735Z,13.80
2023-04-16T02:31:44.322Z,15.27
2023-04-16T02:37:22.903Z,12.95
2023-04-16T02:39:57.132Z,13.85
2023-04-16T02:42:23.492Z,14.32
2023-04-16T02:44:49.949Z,14.32
2023-04-16T02:47:16.331Z,14.38
2023-04-16T02:49:42.683Z,15.93
2023-04-16T02:52:09.376Z,15.65
2023-04-16T02:54:36.152Z,14.85
2023-04-16T02:57:02.524Z,15.40
2023-04-16T02:59:28.942Z,15.13
2023-04-16T03:01:55.501Z,16.08
2023-04-16T03:04:21.975Z,16.90
2023-04-16T03:06:48.691Z,15.93
2023-04-16T03:09:15.643Z,16.67
2023-04-16T03:11:42.150Z,16.58
2023-04-16T03:14:08.530Z,17.00
2023-04-16T03:16:35.123Z,18.33
2023-04-16T03:19:01.818Z,15.23
2023-04-16T03:21:28.220Z,15.55
2023-04-16T03:23:54.906Z,13.90
2023-04-16T03:26:21.398Z,16.33
2023-04-16T03:28:47.871Z,17.02
2023-04-16T03:31:14.408Z,16.98
2023-04-16T03:33:41.128Z,17.30
2023-04-16T03:36:07.827Z,16.00
2023-04-16T03:38:34.421Z,16.92
2023-04-16T03:41:00.892Z,17.38
2023-04-16T03:43:27.706Z,18.73
2023-04-16T03:45:54.127Z,14.20
2023-04-16T03:48:20.654Z,15.30
2023-04-16T03:50:47.295Z,16.15
2023-04-16T03:53:14.177Z,14.90
2023-04-16T03:55:41.687Z,16.17
2023-04-16T03:58:08.432Z,15.63
2023-04-16T04:00:34.813Z,14.77
2023-04-16T04:03:01.885Z,15.05
2023-04-16T04:05:28.582Z,17.88
2023-04-16T04:07:55.308Z,16.27
2023-04-16T04:10:21.935Z,15.02
2023-04-16T04:12:48.270Z,15.55
2023-04-16T04:15:14.759Z,16.38
2023-04-16T04:17:41.874Z,17.02
2023-04-16T04:20:09.608Z,14.63
2023-04-16T04:22:35.997Z,18.30
2023-04-16T04:25:02.713Z,18.23
2023-04-16T04:27:29.098Z,16.50
2023-04-16T04:29:55.563Z,12.65
2023-04-16T04:32:22.260Z,14.93
2023-04-16T04:34:48.712Z,13.82
2023-04-16T04:37:15.354Z,13.43
2023-04-16T04:39:44.794Z,12.82
2023-04-16T04:42:11.333Z,14.73
2023-04-16T04:44:37.754Z,14.05
2023-04-16T04:47:05.191Z,13.13
2023-04-16T04:49:31.764Z,13.90
2023-04-16T04:51:58.202Z,13.55
2023-04-16T04:54:24.722Z,15.77
2023-04-16T04:56:51.067Z,13.90
2023-04-16T04:59:17.407Z,13.95
2023-04-16T05:01:44.114Z,15.27
2023-04-16T05:04:11.161Z,16.45
2023-04-16T05:06:37.780Z,14.85
2023-04-16T05:09:04.268Z,14.25
2023-04-16T05:11:30.765Z,15.05
2023-04-16T05:13:57.119Z,14.98
2023-04-16T05:16:23.506Z,13.65
2023-04-16T05:18:50.024Z,17.00
2023-04-16T05:21:16.703Z,15.43
2023-04-16T05:23:45.823Z,16.63
2023-04-16T05:26:12.224Z,16.73
2023-04-16T05:28:38.725Z,16.83
2023-04-16T05:31:05.319Z,19.08
2023-04-16T05:33:31.734Z,16.83
2023-04-16T05:35:59.484Z,22.27
2023-04-16T05:38:25.899Z,19.80
2023-04-16T05:40:52.385Z,18.67
2023-04-16T05:43:18.903Z,19.33
2023-04-16T05:45:45.329Z,20.65
2023-04-16T05:48:11.815Z,19.00
2023-04-16T05:50:38.337Z,20.98
2023-04-16T05:53:07.798Z,18.65
2023-04-16T05:55:35.523Z,17.73
2023-04-16T05:58:02.011Z,18.63
2023-04-16T06:00:28.507Z,16.15
2023-04-16T06:02:55.063Z,19.30
2023-04-16T06:05:21.785Z,17.75
2023-04-16T06:07:48.196Z,18.08
2023-04-16T06:10:15.090Z,17.00
2023-04-16T06:12:41.456Z,17.05
2023-04-16T06:15:08.450Z,16.05
2023-04-16T06:17:35.323Z,17.52
2023-04-16T06:20:01.711Z,18.30
2023-04-16T06:22:28.444Z,20.60
2023-04-16T06:24:54.900Z,19.10
2023-04-16T06:27:21.350Z,21.45
2023-04-16T06:29:48.042Z,22.95
2023-04-16T06:32:15.590Z,22.15
2023-04-16T06:34:42.140Z,22.30
2023-04-16T06:37:10.512Z,21.15
2023-04-16T06:39:39.279Z,24.35
2023-04-16T06:42:06.109Z,24.73
2023-04-16T06:44:32.686Z,25.58
2023-04-16T06:46:59.328Z,28.65
2023-04-16T06:49:26.152Z,30.60
2023-04-16T06:51:52.627Z,28.52
2023-04-16T06:54:19.068Z,29.08
2023-04-16T06:56:45.592Z,31.35
2023-04-16T06:59:12.101Z,26.38
2023-04-16T07:01:38.601Z,31.98
2023-04-16T07:04:05.701Z,32.22
2023-04-16T07:06:32.572Z,29.17
2023-04-16T07:08:59.314Z,33.33
2023-04-16T07:11:25.754Z,33.30
2023-04-16T07:13:52.205Z,31.80
2023-04-16T07:16:18.975Z,37.15
2023-04-16T07:18:45.691Z,34.08
2023-04-16T07:21:12.572Z,34.13
2023-04-16T07:23:39.147Z,34.95
2023-04-16T07:26:05.823Z,33.97
2023-04-16T07:28:32.150Z,31.83
2023-04-16T07:30:58.628Z,34.08
2023-04-16T07:33:25.099Z,34.80
2023-04-16T07:35:51.758Z,34.70
2023-04-16T07:38:18.159Z,34.33
2023-04-16T07:40:44.612Z,33.78
2023-04-16T07:43:11.024Z,37.53
2023-04-16T07:45:37.785Z,38.00
2023-04-16T07:48:04.329Z,36.47
2023-04-16T07:50:30.854Z,34.80
2023-04-16T07:52:57.230Z,36.35
2023-04-16T07:55:23.809Z,36.15
2023-04-16T07:57:50.374Z,34.40
2023-04-16T08:00:16.993Z,33.35
2023-04-16T08:02:43.792Z,33.67
2023-04-16T08:05:11.302Z,29.65
2023-04-16T08:07:38.085Z,33.20
2023-04-16T08:10:05.428Z,28.20
2023-04-16T08:12:32.227Z,27.05
2023-04-16T08:14:58.737Z,30.27
2023-04-16T08:17:25.714Z,29.73
2023-04-16T08:19:52.134Z,31.85
2023-04-16T08:22:18.844Z,32.55
2023-04-16T08:24:45.400Z,31.27
2023-04-16T08:27:19.434Z,29.92
2023-04-16T08:29:47.985Z,39.80
2023-04-16T08:32:14.667Z,30.08
2023-04-16T08:34:42.017Z,30.98
2023-04-16T08:37:09.082Z,29.08
2023-04-16T08:39:35.723Z,28.98
2023-04-16T08:42:06.288Z,28.70
2023-04-16T08:44:36.135Z,29.83
2023-04-16T08:47:03.192Z,34.67
2023-04-16T08:49:34.046Z,30.15
2023-04-16T08:54:35.036Z,27.40
2023-04-16T08:57:05.684Z,27.92
2023-04-16T08:59:32.965Z,29.90
2023-04-16T09:02:01.084Z,23.67
2023-04-16T09:04:28.277Z,25.15
2023-04-16T09:07:04.343Z,26.10
2023-04-16T09:09:33.438Z,24.70
2023-04-16T09:12:01.692Z,26.70
2023-04-16T09:14:29.097Z,24.13
2023-04-16T09:16:55.885Z,23.75
2023-04-16T09:19:23.250Z,22.65
2023-04-16T09:21:50.437Z,25.90
2023-04-16T09:24:18.010Z,25.85
2023-04-16T09:26:45.306Z,22.67
2023-04-16T09:29:12.132Z,24.75
2023-04-16T09:31:44.885Z,21.15
2023-04-16T09:34:11.444Z,19.33
2023-04-16T09:36:37.885Z,19.25
2023-04-16T09:39:04.494Z,17.00
2023-04-16T09:41:33.146Z,20.95
2023-04-16T09:44:01.500Z,18.70
2023-04-16T09:46:34.448Z,17.92
2023-04-16T09:49:13.713Z,19.45
2023-04-16T09:51:44.984Z,18.52
2023-04-16T09:54:11.622Z,17.80
2023-04-16T09:56:45.893Z,18.38
2023-04-16T09:59:22.972Z,17.98
2023-04-16T10:01:53.158Z,19.90
2023-04-16T10:04:23.943Z,20.92
2023-04-16T10:07:03.946Z,20.88
2023-04-16T10:09:38.358Z,19.27
2023-04-16T10:12:07.250Z,17.52
2023-04-16T10:14:33.848Z,18.20
2023-04-16T10:17:03.103Z,17.98
2023-04-16T10:19:32.453Z,20.15
2023-04-16T10:21:59.562Z,19.10
2023-04-16T10:24:26.320Z,19.77
2023-04-16T10:26:53.875Z,23.23
2023-04-16T10:29:23.360Z,23.38
2023-04-16T10:31:52.058Z,23.33
2023-04-16T10:34:21.281Z,20.42
2023-04-16T10:36:53.305Z,23.25
2023-04-16T10:39:24.324Z,19.17
2023-04-16T10:42:07.682Z,25.50
2023-04-16T10:44:35.944Z,19.85
2023-04-16T10:47:05.018Z,22.38
2023-04-16T10:49:31.856Z,20.80
2023-04-16T10:52:07.460Z,20.75
2023-04-16T10:54:36.072Z,22.20
2023-04-16T10:57:08.342Z,20.42
2023-04-16T10:59:36.389Z,19.95
2023-04-16T11:02:13.878Z,18.58
2023-04-16T11:04:43.606Z,19.65
2023-04-16T11:07:12.905Z,19.80
2023-04-16T11:10:00.822Z,19.20
2023-04-16T11:12:35.300Z,21.45
2023-04-16T11:15:09.696Z,17.58
2023-04-16T11:17:41.773Z,16.95
2023-04-16T11:20:30.257Z,17.10
2023-04-16T11:22:57.930Z,17.83
2023-04-16T11:25:30.460Z,15.48
2023-04-16T11:27:59.777Z,17.92
2023-04-16T11:30:39.547Z,14.30
2023-04-16T11:33:10.870Z,12.00
2023-04-16T11:35:39.091Z,13.90
2023-04-16T11:38:05.814Z,13.30
2023-04-16T11:40:32.383Z,14.98
2023-04-16T11:43:14.275Z,16.17
2023-04-16T11:45:56.399Z,16.42
2023-04-16T11:48:22.874Z,12.23
2023-04-16T11:50:58.751Z,10.90
2023-04-16T11:53:25.690Z,14.65
2023-04-16T11:55:52.164Z,11.45
2023-04-16T11:58:19.009Z,10.60
2023-04-16T12:00:48.468Z,10.45
2023-04-16T12:03:15.494Z,11.45
2023-04-16T12:05:41.924Z,10.30
2023-04-16T12:08:11.417Z,12.30
2023-04-16T12:10:54.081Z,10.32
2023-04-16T12:13:21.870Z,8.15
2023-04-16T12:15:56.384Z,11.75
2023-04-16T12:18:24.839Z,7.00
2023-04-16T12:20:51.446Z,7.95
2023-04-16T12:23:26.837Z,6.97
2023-04-16T12:25:54.229Z,6.45
2023-04-16T12:28:31.973Z,5.97
2023-04-16T12:30:58.906Z,6.22
2023-04-16T12:33:26.381Z,4.82
2023-04-16T12:35:53.165Z,6.30
2023-04-16T12:38:21.254Z,7.28
2023-04-16T12:40:48.563Z,6.38
2023-04-16T12:43:17.461Z,6.10
2023-04-16T12:45:43.996Z,5.88
2023-04-16T12:48:13.172Z,7.05
2023-04-16T12:50:39.936Z,6.97
2023-04-16T12:53:06.468Z,8.23
2023-04-16T12:55:35.144Z,7.32
2023-04-16T12:58:01.506Z,7.38
2023-04-16T13:00:27.964Z,7.05
2023-04-16T13:02:54.852Z,7.43
2023-04-16T13:05:21.356Z,6.22
2023-04-16T13:07:47.837Z,5.03
2023-04-16T13:10:14.315Z,6.13
2023-04-16T13:12:40.851Z,5.65
2023-04-16T13:15:08.612Z,5.45
2023-04-16T13:17:35.332Z,5.70
2023-04-16T13:20:01.794Z,5.72
2023-04-16T13:22:28.577Z,5.90
2023-04-16T13:24:55.417Z,5.93
2023-04-16T13:27:21.944Z,5.25
2023-04-16T13:29:48.419Z,4.55
2023-04-16T13:32:15.328Z,5.95
2023-04-16T13:34:45.852Z,5.55
2023-04-16T13:37:15.591Z,6.43
2023-04-16T13:39:41.951Z,6.88
2023-04-16T13:42:08.369Z,6.10
2023-04-16T13:44:34.984Z,6.10
2023-04-16T13:47:01.458Z,5.50
2023-04-16T13:49:27.843Z,5.50
2023-04-16T13:51:54.349Z,6.07
2023-04-16T13:54:21.152Z,6.15
2023-04-16T13:56:47.858Z,8.88
2023-04-16T13:59:17.509Z,7.25
2023-04-16T14:01:43.962Z,6.82
2023-04-16T14:04:10.529Z,6.20
2023-04-16T14:06:38.697Z,7.13
2023-04-16T14:09:05.169Z,8.27
2023-04-16T14:11:31.695Z,7.13
2023-04-16T14:13:58.500Z,7.32
2023-04-16T14:16:26.474Z,9.35
2023-04-16T14:18:53.172Z,7.53
2023-04-16T14:21:20.457Z,10.20
2023-04-16T14:23:46.888Z,9.20
2023-04-16T14:26:13.488Z,9.43
2023-04-16T14:28:41.169Z,10.70
2023-04-16T14:31:07.601Z,8.68
2023-04-16T14:33:34.092Z,10.02
2023-04-16T14:36:02.762Z,10.13
2023-04-16T14:38:30.144Z,11.50
2023-04-16T14:40:56.968Z,9.45
2023-04-16T14:43:23.437Z,11.68
2023-04-16T14:45:50.226Z,12.38
2023-04-16T14:48:19.550Z,10.30
2023-04-16T14:50:46.077Z,11.45
2023-04-16T14:53:14.431Z,11.40
2023-04-16T14:55:40.898Z,13.32
2023-04-16T14:58:07.464Z,11.27
2023-04-16T15:00:36.965Z,11.10
2023-04-16T15:03:04.242Z,13.93
2023-04-16T15:05:31.777Z,14.07
2023-04-16T15:08:01.782Z,12.57
2023-04-16T15:10:33.437Z,13.05
2023-04-16T15:13:00.078Z,14.02
2023-04-16T15:15:28.376Z,14.32
2023-04-16T15:17:58.616Z,15.63
2023-04-16T15:20:26.471Z,13.55
2023-04-16T15:22:53.397Z,14.07
2023-04-16T15:25:22.929Z,14.65
2023-04-16T15:27:52.347Z,15.80
2023-04-16T15:30:19.306Z,14.60
2023-04-16T15:32:46.228Z,14.25
2023-04-16T15:35:17.668Z,16.63
2023-04-16T15:37:45.153Z,15.85
2023-04-16T15:40:11.925Z,14.00
2023-04-16T15:42:38.877Z,17.80
2023-04-16T15:45:05.682Z,16.60
2023-04-16T15:47:32.136Z,17.17
2023-04-16T15:49:58.847Z,17.55
2023-04-16T15:52:25.425Z,19.90
2023-04-16T15:54:51.913Z,16.58
2023-04-16T15:57:18.608Z,19.70
2023-04-16T15:59:59.370Z,18.63
2023-04-16T16:02:32.072Z,18.10
2023-04-16T16:04:58.926Z,22.63
2023-04-16T16:07:25.504Z,22.42
2023-04-16T16:09:52.055Z,21.48
2023-04-16T16:12:18.605Z,18.15
2023-04-16T16:14:46.421Z,21.30
2023-04-16T16:17:13.808Z,20.42
2023-04-16T16:19:40.524Z,30.48
2023-04-16T16:22:07.101Z,29.60
2023-04-16T16:24:33.615Z,24.20
2023-04-16T16:27:01.704Z,52.88
2023-04-16T16:29:28.251Z,26.85
2023-04-16T16:31:54.907Z,27.05
2023-04-16T16:34:24.129Z,21.20
2023-04-16T16:36:52.894Z,25.27
2023-04-16T16:39:20.256Z,36.70
2023-04-16T16:41:47.867Z,25.60
2023-04-16T16:44:14.485Z,20.52
2023-04-16T16:46:40.907Z,23.80
2023-04-16T16:49:07.466Z,18.98
2023-04-16T16:51:34.162Z,21.05
2023-04-16T16:54:00.767Z,20.65
2023-04-16T16:56:27.449Z,23.13
2023-04-16T16:58:54.152Z,26.02
2023-04-16T17:01:23.284Z,25.73
2023-04-16T17:03:50.432Z,24.27
2023-04-16T17:06:17.220Z,22.90
2023-04-16T17:08:51.571Z,23.73
2023-04-16T17:11:17.937Z,27.20
2023-04-16T17:13:46.356Z,27.90
2023-04-16T17:16:13.176Z,26.17
2023-04-16T17:18:43.778Z,27.00
2023-04-16T17:21:10.240Z,26.88
2023-04-16T17:23:47.396Z,26.98
2023-04-16T17:26:16.010Z,24.30
2023-04-16T17:28:44.973Z,29.48
2023-04-16T17:31:11.398Z,28.55
2023-04-16T17:33:40.441Z,26.20
2023-04-16T17:36:07.264Z,28.77
2023-04-16T17:38:36.377Z,30.98
2023-04-16T17:41:10.264Z,29.35
2023-04-16T17:43:37.354Z,27.88
2023-04-16T17:46:05.107Z,26.45
2023-04-16T17:48:32.835Z,27.05
2023-04-16T17:50:59.542Z,29.45
2023-04-16T17:53:26.167Z,33.22
2023-04-16T17:55:56.012Z,27.35
2023-04-16T17:58:26.321Z,27.10
2023-04-16T18:00:52.747Z,32.53
2023-04-16T18:03:21.803Z,27.55
2023-04-16T18:05:50.911Z,26.30
2023-04-16T18:08:17.395Z,28.52
2023-04-16T18:10:44.251Z,26.13
2023-04-16T18:13:10.661Z,29.38
2023-04-16T18:15:38.061Z,28.73
2023-04-16T18:18:05.236Z,27.98
2023-04-16T18:20:31.920Z,28.52
2023-04-16T18:22:58.690Z,30.70
2023-04-16T18:25:33.796Z,29.08
2023-04-16T18:28:01.185Z,29.27
2023-04-16T18:30:28.274Z,31.83
2023-04-16T18:33:19.526Z,27.25
2023-04-16T18:35:43.022Z,30.83
2023-04-16T18:38:09.431Z,30.88
2023-04-16T18:40:37.402Z,30.40
2023-04-16T18:43:04.236Z,29.17
2023-04-16T18:45:34.354Z,27.63
2023-04-16T18:48:02.416Z,27.30
2023-04-16T18:50:29.322Z,27.13
2023-04-16T18:52:55.852Z,27.80
2023-04-16T18:55:22.405Z,27.33
2023-04-16T18:57:48.952Z,26.02
2023-04-16T19:00:15.759Z,23.65
2023-04-16T19:02:42.304Z,24.60
2023-04-16T19:05:09.539Z,23.13
2023-04-16T19:07:35.935Z,25.73
2023-04-16T19:10:02.510Z,29.27
2023-04-16T19:12:28.919Z,30.95
2023-04-16T19:14:55.421Z,26.08
2023-04-16T19:17:22.439Z,25.27
2023-04-16T19:19:48.956Z,23.50
2023-04-16T19:22:15.367Z,29.02
2023-04-16T19:24:43.205Z,24.58
2023-04-16T19:27:10.879Z,22.73
2023-04-16T19:29:37.353Z,27.15
2023-04-16T19:32:04.236Z,23.42
2023-04-16T19:34:30.952Z,23.00
2023-04-16T19:36:57.438Z,23.90
2023-04-16T19:39:26.871Z,22.42
2023-04-16T19:41:53.319Z,22.05
2023-04-16T19:44:19.686Z,24.50
2023-04-16T19:46:46.097Z,22.33
2023-04-16T19:49:13.118Z,23.10
2023-04-16T19:51:39.791Z,23.98
2023-04-16T19:54:06.316Z,23.20
2023-04-16T19:56:32.868Z,21.83
2023-04-16T19:58:59.917Z,26.38
2023-04-16T20:01:26.723Z,25.00
2023-04-16T20:03:54.328Z,26.85
2023-04-16T20:06:20.768Z,25.00
2023-04-16T20:08:47.185Z,26.13
2023-04-16T20:11:13.651Z,26.13
2023-04-16T20:13:40.079Z,24.48
2023-04-16T20:16:06.409Z,26.50
2023-04-16T20:18:32.847Z,24.20
2023-04-16T20:21:03.871Z,26.48
2023-04-16T20:23:32.025Z,23.52
2023-04-16T20:25:59.205Z,29.85
2023-04-16T20:28:25.771Z,26.58
2023-04-16T20:30:52.804Z,28.77
2023-04-16T20:33:20.750Z,31.17
2023-04-16T20:35:50.004Z,28.02
2023-04-16T20:38:16.619Z,26.60
2023-04-16T20:40:46.430Z,27.23
2023-04-16T20:43:12.922Z,27.13
2023-04-16T20:45:39.369Z,29.70
2023-04-16T20:48:06.284Z,32.95
2023-04-16T20:50:33.468Z,32.78
2023-04-16T20:52:59.924Z,28.92
2023-04-16T20:55:27.385Z,30.20
2023-04-16T20:57:53.807Z,32.72
2023-04-16T21:00:20.581Z,27.45
2023-04-16T21:02:47.467Z,31.27
2023-04-16T21:05:14.078Z,29.80
2023-04-16T21:07:41.718Z,27.40
2023-04-16T21:10:10.751Z,27.13
2023-04-16T21:12:37.275Z,26.95
2023-04-16T21:15:04.676Z,30.42
2023-04-16T21:17:34.057Z,26.25
2023-04-16T21:20:00.393Z,25.80
2023-04-16T21:22:27.062Z,29.27
2023-04-16T21:24:55.568Z,27.20
2023-04-16T21:27:23.790Z,30.13
2023-04-16T21:29:50.170Z,26.95
2023-04-16T21:32:16.536Z,25.45
2023-04-16T21:34:42.911Z,29.45
2023-04-16T21:37:09.303Z,28.60
2023-04-16T21:39:36.284Z,25.00
2023-04-16T21:42:02.963Z,24.35
2023-04-16T21:44:29.335Z,26.13
2023-04-16T21:46:55.864Z,25.33
2023-04-16T21:49:23.050Z,25.30
2023-04-16T21:51:49.789Z,23.15
2023-04-16T21:54:16.979Z,23.75
2023-04-16T21:56:45.044Z,21.98
2023-04-16T21:59:11.645Z,27.85
2023-04-16T22:01:38.346Z,27.67
2023-04-16T22:04:05.111Z,24.88
2023-04-16T22:06:31.581Z,23.70
2023-04-16T22:08:57.956Z,21.23
2023-04-16T22:11:24.627Z,23.45
2023-04-16T22:13:52.356Z,22.20
2023-04-16T22:16:18.789Z,22.33
2023-04-16T22:18:45.255Z,19.98
2023-04-16T22:21:11.786Z,22.92
2023-04-16T22:23:38.390Z,22.88
2023-04-16T22:26:04.903Z,22.67
2023-04-16T22:28:31.309Z,24.00
2023-04-16T22:30:57.683Z,22.70
2023-04-16T22:33:24.148Z,24.55
2023-04-16T22:35:51.645Z,19.95
2023-04-16T22:38:18.030Z,21.85
2023-04-16T22:40:47.379Z,23.90
2023-04-16T22:43:14.625Z,23.10
2023-04-16T22:45:41.180Z,21.52
2023-04-16T22:48:08.106Z,20.92
2023-04-16T22:50:35.133Z,20.45
2023-04-16T22:53:01.480Z,22.52
2023-04-16T22:55:27.853Z,24.48
2023-04-16T22:57:54.700Z,23.50
2023-04-16T23:00:21.215Z,22.52
2023-04-16T23:02:47.827Z,21.40
2023-04-16T23:05:14.343Z,24.98
2023-04-16T23:07:40.867Z,19.92
2023-04-16T23:10:07.733Z,24.38
2023-04-16T23:12:34.438Z,22.08
2023-04-16T23:15:00.925Z,23.38
2023-04-16T23:17:27.469Z,17.80
2023-04-16T23:19:53.942Z,19.60
2023-04-16T23:22:20.812Z,22.73
2023-04-16T23:24:47.174Z,22.38
2023-04-16T23:27:13.559Z,22.98
2023-04-16T23:29:40.297Z,23.10
2023-04-16T23:32:06.672Z,22.27
2023-04-16T23:34:33.167Z,22.88
2023-04-16T23:37:02.696Z,20.50
2023-04-16T23:39:29.046Z,21.92
2023-04-16T23:41:55.406Z,21.67
2023-04-16T23:44:21.782Z,22.17
2023-04-16T23:46:48.248Z,20.90
2023-04-16T23:49:15.005Z,20.20
2023-04-16T23:51:41.455Z,20.25
2023-04-16T23:54:09.138Z,20.75
2023-04-16T23:56:35.692Z,25.08
2023-04-16T23:59:02.215Z,21.92
